createdAt,value
2022-12-18T00:01:24.627Z,-4.15
2022-12-18T00:03:52.873Z,-4.13
2022-12-18T00:06:21.404Z,-4.13
2022-12-18T00:08:49.518Z,-4.15
2022-12-18T00:11:20.126Z,-4.09
2022-12-18T00:13:48.763Z,-4.12
2022-12-18T00:16:19.389Z,-4.12
2022-12-18T00:18:46.981Z,-4.20
2022-12-18T00:21:15.697Z,-4.16
2022-12-18T00:23:44.684Z,-4.11
2022-12-18T00:26:14.486Z,-4.14
2022-12-18T00:28:43.550Z,-4.06
2022-12-18T00:31:13.595Z,-4.14
2022-12-18T00:33:42.026Z,-4.12
2022-12-18T00:36:13.331Z,-4.08
2022-12-18T00:38:41.238Z,-4.10
2022-12-18T00:41:10.252Z,-4.13
2022-12-18T00:43:37.506Z,-4.15
2022-12-18T00:46:07.090Z,-4.21
2022-12-18T00:48:34.740Z,-4.23
2022-12-18T00:51:02.288Z,-4.22
2022-12-18T00:53:29.800Z,-4.23
2022-12-18T00:55:57.533Z,-4.34
2022-12-18T00:58:25.138Z,-4.37
2022-12-18T01:00:52.755Z,-4.33
2022-12-18T01:03:21.631Z,-4.35
2022-12-18T01:05:49.199Z,-4.31
2022-12-18T01:08:16.746Z,-4.38
2022-12-18T01:10:44.846Z,-4.29
2022-12-18T01:13:12.690Z,-4.27
2022-12-18T01:15:40.870Z,-4.38
2022-12-18T01:18:09.063Z,-4.53
2022-12-18T01:20:39.650Z,-4.54
2022-12-18T01:23:07.263Z,-4.64
2022-12-18T01:25:35.239Z,-4.72
2022-12-18T01:28:02.795Z,-4.67
2022-12-18T01:30:30.426Z,-4.60
2022-12-18T01:32:58.520Z,-4.59
2022-12-18T01:35:26.286Z,-4.55
2022-12-18T01:37:57.489Z,-4.46
2022-12-18T01:40:25.223Z,-4.67
2022-12-18T01:42:53.548Z,-4.69
2022-12-18T01:45:28.122Z,-4.63
2022-12-18T01:47:57.981Z,-4.60
2022-12-18T01:50:29.215Z,-4.74
2022-12-18T01:53:01.862Z,-4.65
2022-12-18T01:55:34.002Z,-4.62
2022-12-18T01:58:02.703Z,-4.58
2022-12-18T02:00:30.978Z,-4.52
2022-12-18T02:02:58.744Z,-4.51
2022-12-18T02:05:36.381Z,-4.57
2022-12-18T02:08:12.648Z,-4.67
2022-12-18T02:10:50.013Z,-4.64
2022-12-18T02:13:25.923Z,-4.61
2022-12-18T02:16:02.349Z,-4.59
2022-12-18T02:18:33.830Z,-4.67
2022-12-18T02:21:09.746Z,-4.57
2022-12-18T02:23:53.686Z,-4.48
2022-12-18T02:26:27.650Z,-4.47
2022-12-18T02:29:00.943Z,-4.52
2022-12-18T02:31:35.314Z,-4.47
2022-12-18T02:34:06.693Z,-4.39
2022-12-18T02:36:41.948Z,-4.51
2022-12-18T02:39:14.038Z,-4.52
2022-12-18T02:41:50.989Z,-4.45
2022-12-18T02:44:19.317Z,-4.53
2022-12-18T02:46:50.841Z,-4.53
2022-12-18T02:49:32.790Z,-4.62
2022-12-18T02:52:09.439Z,-4.67
2022-12-18T02:54:53.912Z,-4.68
2022-12-18T02:57:30.745Z,-4.60
2022-12-18T03:00:04.926Z,-4.55
2022-12-18T03:02:39.808Z,-4.54
2022-12-18T03:05:14.475Z,-4.67
2022-12-18T03:07:47.413Z,-4.56
2022-12-18T03:10:21.638Z,-4.56
2022-12-18T03:12:55.534Z,-4.55
2022-12-18T03:15:27.026Z,-4.59
2022-12-18T03:18:06.534Z,-4.58
2022-12-18T03:20:36.868Z,-4.69
2022-12-18T03:23:11.158Z,-4.62
2022-12-18T03:25:42.648Z,-4.60
2022-12-18T03:28:16.307Z,-4.60
2022-12-18T03:30:46.830Z,-4.76
2022-12-18T03:33:20.491Z,-4.74
2022-12-18T03:35:49.995Z,-4.69
2022-12-18T03:38:19.219Z,-4.79
2022-12-18T03:41:00.629Z,-4.87
2022-12-18T03:43:41.834Z,-5.06
2022-12-18T03:46:19.540Z,-4.96
2022-12-18T03:48:53.745Z,-5.04
2022-12-18T03:51:28.678Z,-4.95
2022-12-18T03:54:00.455Z,-4.83
2022-12-18T03:56:35.387Z,-5.03
2022-12-18T03:59:07.747Z,-5.16
2022-12-18T04:01:38.022Z,-5.06
2022-12-18T04:04:07.976Z,-5.15
2022-12-18T04:06:40.590Z,-5.21
2022-12-18T04:09:10.896Z,-5.15
2022-12-18T04:11:42.175Z,-5.12
2022-12-18T04:14:17.361Z,-5.14
2022-12-18T04:16:45.863Z,-5.18
2022-12-18T04:19:16.702Z,-5.21
2022-12-18T04:21:45.986Z,-5.19
2022-12-18T04:24:15.172Z,-5.16
2022-12-18T04:26:51.508Z,-5.15
2022-12-18T04:29:25.810Z,-5.06
2022-12-18T04:31:53.518Z,-5.02
2022-12-18T04:34:22.397Z,-5.15
2022-12-18T04:36:53.269Z,-5.22
2022-12-18T04:39:22.424Z,-5.19
2022-12-18T04:41:52.118Z,-5.20
2022-12-18T04:44:19.686Z,-5.16
2022-12-18T04:46:48.614Z,-5.14
2022-12-18T04:49:16.433Z,-5.22
2022-12-18T04:51:43.965Z,-5.32
2022-12-18T04:54:11.545Z,-5.22
2022-12-18T04:56:39.150Z,-5.29
2022-12-18T04:59:06.716Z,-5.36
2022-12-18T05:01:35.170Z,-5.25
2022-12-18T05:04:04.688Z,-5.30
2022-12-18T05:06:32.266Z,-5.30
2022-12-18T05:09:00.198Z,-5.33
2022-12-18T05:11:27.747Z,-5.41
2022-12-18T05:13:55.281Z,-5.46
2022-12-18T05:16:22.900Z,-5.51
2022-12-18T05:18:50.510Z,-5.53
2022-12-18T05:21:19.405Z,-5.64
2022-12-18T05:23:46.963Z,-5.69
2022-12-18T05:26:18.951Z,-5.63
2022-12-18T05:28:46.821Z,-5.61
2022-12-18T05:31:14.892Z,-5.77
2022-12-18T05:33:43.128Z,-5.74
2022-12-18T05:36:12.277Z,-5.66
2022-12-18T05:38:41.579Z,-5.81
2022-12-18T05:41:10.395Z,-5.68
2022-12-18T05:43:39.834Z,-5.64
2022-12-18T05:46:09.109Z,-5.63
2022-12-18T05:48:36.830Z,-5.66
2022-12-18T05:51:09.816Z,-5.74
2022-12-18T05:53:38.811Z,-5.79
2022-12-18T05:56:10.269Z,-5.78
2022-12-18T05:58:38.691Z,-5.74
2022-12-18T06:01:11.274Z,-5.73
2022-12-18T06:03:39.566Z,-5.71
2022-12-18T06:06:15.044Z,-5.61
2022-12-18T06:08:46.140Z,-5.57
2022-12-18T06:11:19.011Z,-5.51
2022-12-18T06:13:46.661Z,-5.55
2022-12-18T06:16:14.676Z,-5.63
2022-12-18T06:18:42.345Z,-5.58
2022-12-18T06:21:10.039Z,-5.63
2022-12-18T06:23:37.879Z,-5.54
2022-12-18T06:26:07.336Z,-5.57
2022-12-18T06:28:36.289Z,-5.64
2022-12-18T06:31:04.787Z,-5.69
2022-12-18T06:33:32.788Z,-5.67
2022-12-18T06:36:02.271Z,-5.67
2022-12-18T06:38:29.904Z,-5.69
2022-12-18T06:40:57.429Z,-5.76
2022-12-18T06:43:25.099Z,-5.81
2022-12-18T06:46:00.740Z,-5.90
2022-12-18T06:48:28.558Z,-5.81
2022-12-18T06:50:56.525Z,-5.79
2022-12-18T06:53:24.374Z,-5.65
2022-12-18T06:55:52.033Z,-5.61
2022-12-18T06:58:19.693Z,-5.65
2022-12-18T07:00:47.471Z,-5.72
2022-12-18T07:03:16.379Z,-5.77
2022-12-18T07:05:43.928Z,-5.71
2022-12-18T07:08:11.482Z,-5.75
2022-12-18T07:10:46.838Z,-5.89
2022-12-18T07:13:15.820Z,-5.80
2022-12-18T07:15:43.417Z,-5.77
2022-12-18T07:18:11.759Z,-5.78
2022-12-18T07:20:40.697Z,-5.90
2022-12-18T07:23:08.213Z,-5.84
2022-12-18T07:25:36.261Z,-5.84
2022-12-18T07:28:03.966Z,-5.86
2022-12-18T07:30:31.758Z,-5.87
2022-12-18T07:32:59.347Z,-5.82
2022-12-18T07:35:26.890Z,-5.71
2022-12-18T07:37:55.746Z,-5.71
2022-12-18T07:40:23.295Z,-5.72
2022-12-18T07:42:50.814Z,-5.75
2022-12-18T07:45:18.469Z,-5.73
2022-12-18T07:47:45.991Z,-5.76
2022-12-18T07:50:14.181Z,-5.72
2022-12-18T07:52:41.716Z,-5.72
2022-12-18T07:55:10.915Z,-5.67
2022-12-18T07:57:57.768Z,-5.63
2022-12-18T08:00:26.012Z,-5.57
2022-12-18T08:02:54.297Z,-5.70
2022-12-18T08:05:22.523Z,-5.54
2022-12-18T08:07:50.098Z,-5.55
2022-12-18T08:10:19.566Z,-5.53
2022-12-18T08:12:47.230Z,-5.45
2022-12-18T08:15:14.771Z,-5.48
2022-12-18T08:17:42.353Z,-5.41
2022-12-18T08:20:11.362Z,-5.42
2022-12-18T08:22:38.890Z,-5.51
2022-12-18T08:25:07.931Z,-5.50
2022-12-18T08:27:37.025Z,-5.40
2022-12-18T08:30:05.294Z,-5.41
2022-12-18T08:32:34.759Z,-5.29
2022-12-18T08:35:02.548Z,-5.27
2022-12-18T08:37:30.052Z,-5.17
2022-12-18T08:39:57.546Z,-5.17
2022-12-18T08:42:42.623Z,-5.12
2022-12-18T08:45:12.372Z,-5.10
2022-12-18T08:47:39.841Z,-5.06
2022-12-18T08:50:08.081Z,-5.00
2022-12-18T08:52:35.588Z,-4.85
2022-12-18T08:55:03.155Z,-4.88
2022-12-18T08:57:30.661Z,-4.76
2022-12-18T08:59:58.174Z,-4.78
2022-12-18T09:02:27.184Z,-4.65
2022-12-18T09:04:57.511Z,-4.58
2022-12-18T09:07:25.303Z,-4.52
2022-12-18T09:09:52.860Z,-4.51
2022-12-18T09:12:20.484Z,-4.36
2022-12-18T09:14:48.008Z,-4.46
2022-12-18T09:17:15.595Z,-4.28
2022-12-18T09:19:44.858Z,-4.38
2022-12-18T09:22:12.339Z,-4.15
2022-12-18T09:24:39.920Z,-4.12
2022-12-18T09:27:07.441Z,-3.90
2022-12-18T09:29:35.175Z,-3.91
2022-12-18T09:32:02.682Z,-3.93
2022-12-18T09:34:30.225Z,-3.71
2022-12-18T09:36:59.090Z,-3.66
2022-12-18T09:39:26.634Z,-3.57
2022-12-18T09:41:56.757Z,-3.35
2022-12-18T09:44:29.759Z,-3.50
2022-12-18T09:47:10.339Z,-3.47
2022-12-18T09:49:42.585Z,-3.31
2022-12-18T09:52:17.940Z,-3.21
2022-12-18T09:54:49.931Z,-3.08
2022-12-18T09:57:21.034Z,-3.11
2022-12-18T09:59:53.267Z,-3.06
2022-12-18T10:02:24.581Z,-2.94
2022-12-18T10:05:03.969Z,-2.89
2022-12-18T10:07:44.753Z,-2.70
2022-12-18T10:10:21.936Z,-2.79
2022-12-18T10:13:02.543Z,-2.95
2022-12-18T10:15:38.142Z,-2.78
2022-12-18T10:18:22.191Z,-2.76
2022-12-18T10:20:53.018Z,-2.66
2022-12-18T10:23:28.623Z,-2.50
2022-12-18T10:26:03.568Z,-2.47
2022-12-18T10:28:32.666Z,-2.38
2022-12-18T10:31:00.680Z,-2.39
2022-12-18T10:33:32.447Z,-2.67
2022-12-18T10:36:01.007Z,-2.47
2022-12-18T10:38:32.606Z,-2.46
2022-12-18T10:41:02.436Z,-2.45
2022-12-18T10:43:31.435Z,-2.36
2022-12-18T10:46:15.660Z,-2.27
2022-12-18T10:48:53.663Z,-1.95
2022-12-18T10:51:24.153Z,-2.27
2022-12-18T10:53:58.721Z,-2.24
2022-12-18T10:56:28.056Z,-2.03
2022-12-18T10:59:01.787Z,-2.00
2022-12-18T11:01:32.978Z,-2.00
2022-12-18T11:04:03.391Z,-1.78
2022-12-18T11:06:31.326Z,-1.75
2022-12-18T11:09:13.347Z,-1.82
2022-12-18T11:11:42.816Z,-1.78
2022-12-18T11:14:19.828Z,-1.68
2022-12-18T11:17:23.853Z,-1.77
2022-12-18T11:19:39.133Z,-1.78
2022-12-18T11:22:21.879Z,-1.71
2022-12-18T11:25:30.105Z,-1.71
2022-12-18T11:27:50.417Z,-1.70
2022-12-18T11:30:24.543Z,-1.74
2022-12-18T11:32:54.321Z,-1.83
2022-12-18T11:35:36.475Z,-1.75
2022-12-18T11:38:12.644Z,-1.85
2022-12-18T11:40:45.975Z,-1.78
2022-12-18T11:43:18.791Z,-1.73
2022-12-18T11:45:51.567Z,-1.86
2022-12-18T11:48:23.540Z,-1.95
2022-12-18T11:50:53.513Z,-1.87
2022-12-18T11:53:21.873Z,-1.83
2022-12-18T11:56:02.236Z,-1.85
2022-12-18T11:58:43.679Z,-1.61
2022-12-18T12:01:22.380Z,-1.63
2022-12-18T12:04:10.878Z,-1.49
2022-12-18T12:06:48.556Z,-1.53
2022-12-18T12:09:24.589Z,-1.61
2022-12-18T12:12:08.260Z,-1.46
2022-12-18T12:14:54.909Z,-1.64
2022-12-18T12:17:34.269Z,-1.77
2022-12-18T12:20:12.472Z,-1.87
2022-12-18T12:22:47.164Z,-1.81
2022-12-18T12:25:31.359Z,-1.79
2022-12-18T12:28:14.860Z,-1.75
2022-12-18T12:30:57.193Z,-1.94
2022-12-18T12:33:41.387Z,-1.93
2022-12-18T12:36:18.146Z,-1.94
2022-12-18T12:38:52.304Z,-1.81
2022-12-18T12:41:41.601Z,-1.89
2022-12-18T12:44:18.423Z,-1.98
2022-12-18T12:46:46.901Z,-1.90
2022-12-18T12:49:18.501Z,-1.88
2022-12-18T12:51:49.038Z,-1.80
2022-12-18T12:54:20.584Z,-1.62
2022-12-18T12:56:56.765Z,-1.81
2022-12-18T12:59:33.499Z,-1.71
2022-12-18T13:02:07.955Z,-1.58
2022-12-18T13:04:43.031Z,-1.49
2022-12-18T13:07:18.261Z,-1.51
2022-12-18T13:10:17.832Z,-1.57
2022-12-18T13:12:58.149Z,-1.48
2022-12-18T13:15:35.860Z,-1.37
2022-12-18T13:18:15.432Z,-1.40
2022-12-18T13:20:52.490Z,-1.47
2022-12-18T13:23:40.800Z,-1.54
2022-12-18T13:26:36.779Z,-1.43
2022-12-18T13:29:05.203Z,-1.55
2022-12-18T13:32:09.986Z,-1.62
2022-12-18T13:34:39.202Z,-1.67
2022-12-18T13:37:45.507Z,-1.65
2022-12-18T13:40:58.395Z,-1.73
2022-12-18T13:43:32.030Z,-1.77
2022-12-18T13:46:06.319Z,-1.83
2022-12-18T13:48:36.751Z,-1.85
2022-12-18T13:51:08.525Z,-1.90
2022-12-18T13:53:41.661Z,-1.87
2022-12-18T13:56:09.529Z,-2.01
2022-12-18T13:58:37.962Z,-1.95
2022-12-18T14:01:06.058Z,-1.95
2022-12-18T14:03:33.806Z,-1.99
2022-12-18T14:06:05.643Z,-2.13
2022-12-18T14:08:41.813Z,-2.17
2022-12-18T14:11:21.659Z,-2.19
2022-12-18T14:13:51.344Z,-2.18
2022-12-18T14:16:19.623Z,-2.20
2022-12-18T14:18:49.979Z,-2.28
2022-12-18T14:21:21.911Z,-2.29
2022-12-18T14:23:50.952Z,-2.33
2022-12-18T14:26:25.397Z,-2.39
2022-12-18T14:28:54.743Z,-2.40
2022-12-18T14:31:23.927Z,-2.47
2022-12-18T14:33:51.675Z,-2.51
2022-12-18T14:36:21.763Z,-2.46
2022-12-18T14:38:55.102Z,-2.47
2022-12-18T14:41:23.932Z,-2.47
2022-12-18T14:43:53.146Z,-2.56
2022-12-18T14:46:34.436Z,-2.67
2022-12-18T14:49:04.757Z,-2.67
2022-12-18T14:51:34.702Z,-2.66
2022-12-18T14:54:08.799Z,-2.75
2022-12-18T14:56:38.073Z,-2.77
2022-12-18T14:59:22.334Z,-2.81
2022-12-18T15:02:01.958Z,-2.85
2022-12-18T15:04:33.249Z,-2.85
2022-12-18T15:07:10.874Z,-2.86
2022-12-18T15:09:41.921Z,-2.81
2022-12-18T15:12:28.478Z,-2.89
2022-12-18T15:14:56.025Z,-2.99
2022-12-18T15:17:26.740Z,-2.87
2022-12-18T15:20:00.670Z,-2.94
2022-12-18T15:22:29.664Z,-2.88
2022-12-18T15:25:00.160Z,-2.92
2022-12-18T15:27:31.585Z,-3.04
2022-12-18T15:30:20.251Z,-2.96
2022-12-18T15:32:48.542Z,-3.07
2022-12-18T15:35:19.494Z,-3.06
2022-12-18T15:37:47.039Z,-2.98
2022-12-18T15:40:17.629Z,-3.09
2022-12-18T15:43:03.847Z,-3.04
2022-12-18T15:45:31.418Z,-3.11
2022-12-18T15:47:59.723Z,-3.05
2022-12-18T15:50:30.347Z,-3.09
2022-12-18T15:52:58.447Z,-3.11
2022-12-18T15:55:44.987Z,-3.08
2022-12-18T15:58:12.913Z,-3.05
2022-12-18T16:00:42.645Z,-2.91
2022-12-18T16:03:10.751Z,-2.97
2022-12-18T16:05:38.483Z,-2.98
2022-12-18T16:08:06.066Z,-2.94
2022-12-18T16:10:34.937Z,-2.94
2022-12-18T16:13:02.457Z,-2.96
2022-12-18T16:15:30.017Z,-3.14
2022-12-18T16:17:57.542Z,-3.23
2022-12-18T16:20:25.063Z,-3.20
2022-12-18T16:22:53.909Z,-3.20
2022-12-18T16:25:24.321Z,-3.27
2022-12-18T16:27:55.032Z,-3.33
2022-12-18T16:30:26.362Z,-3.38
2022-12-18T16:32:54.008Z,-3.49
2022-12-18T16:35:22.103Z,-3.40
2022-12-18T16:37:49.610Z,-3.44
2022-12-18T16:40:18.535Z,-3.53
2022-12-18T16:42:47.632Z,-3.61
2022-12-18T16:45:18.106Z,-3.65
2022-12-18T16:47:46.520Z,-3.64
2022-12-18T16:50:14.555Z,-3.71
2022-12-18T16:52:42.118Z,-3.67
2022-12-18T16:55:10.529Z,-3.71
2022-12-18T16:57:38.029Z,-3.65
2022-12-18T17:00:06.911Z,-3.60
2022-12-18T17:02:36.063Z,-3.51
2022-12-18T17:05:03.700Z,-3.58
2022-12-18T17:07:31.210Z,-3.62
2022-12-18T17:09:58.806Z,-3.64
2022-12-18T17:12:26.713Z,-3.56
2022-12-18T17:14:54.203Z,-3.54
2022-12-18T17:17:23.393Z,-3.63
2022-12-18T17:19:53.400Z,-3.68
2022-12-18T17:22:20.989Z,-3.57
2022-12-18T17:24:48.641Z,-3.65
2022-12-18T17:27:16.380Z,-3.60
2022-12-18T17:29:48.073Z,-3.59
2022-12-18T17:32:16.752Z,-3.68
2022-12-18T17:34:44.323Z,-3.60
2022-12-18T17:37:13.501Z,-3.63
2022-12-18T17:39:41.922Z,-3.59
2022-12-18T17:42:10.631Z,-3.66
2022-12-18T17:44:42.971Z,-3.57
2022-12-18T17:47:11.972Z,-3.62
2022-12-18T17:49:39.606Z,-3.54
2022-12-18T17:52:07.884Z,-3.54
2022-12-18T17:54:39.465Z,-3.46
2022-12-18T17:57:07.022Z,-3.48
2022-12-18T17:59:34.594Z,-3.51
2022-12-18T18:02:02.308Z,-3.44
2022-12-18T18:04:30.434Z,-3.47
2022-12-18T18:06:57.963Z,-3.37
2022-12-18T18:09:25.568Z,-3.47
2022-12-18T18:12:12.234Z,-3.40
2022-12-18T18:14:40.016Z,-3.32
2022-12-18T18:17:07.689Z,-3.32
2022-12-18T18:19:35.651Z,-3.24
2022-12-18T18:22:03.755Z,-3.24
2022-12-18T18:24:31.860Z,-3.30
2022-12-18T18:27:00.807Z,-3.37
2022-12-18T18:29:31.007Z,-3.36
2022-12-18T18:31:58.954Z,-3.37
2022-12-18T18:34:29.607Z,-3.24
2022-12-18T18:36:57.178Z,-3.18
2022-12-18T18:39:24.908Z,-3.18
2022-12-18T18:41:52.560Z,-3.16
2022-12-18T18:44:25.655Z,-3.17
2022-12-18T18:46:54.742Z,-3.28
2022-12-18T18:49:23.997Z,-3.22
2022-12-18T18:51:51.716Z,-3.12
2022-12-18T18:54:19.254Z,-3.22
2022-12-18T18:59:35.558Z,-3.10
2022-12-18T19:02:04.365Z,-3.08
2022-12-18T19:04:33.047Z,-3.00
2022-12-18T19:07:00.728Z,-3.03
2022-12-18T19:09:28.694Z,-3.04
2022-12-18T19:12:14.602Z,-3.12
2022-12-18T19:14:46.547Z,-3.08
2022-12-18T19:17:14.317Z,-3.14
2022-12-18T19:19:42.332Z,-3.11
2022-12-18T19:22:10.909Z,-3.02
2022-12-18T19:24:38.578Z,-3.03
2022-12-18T19:27:06.208Z,-2.98
2022-12-18T19:29:33.738Z,-2.95
2022-12-18T19:32:02.722Z,-2.90
2022-12-18T19:34:30.343Z,-3.00
2022-12-18T19:37:00.053Z,-2.96
2022-12-18T19:39:28.125Z,-2.93
2022-12-18T19:41:55.771Z,-2.86
2022-12-18T19:44:23.353Z,-2.86
2022-12-18T19:46:51.367Z,-2.89
2022-12-18T19:49:20.234Z,-2.83
2022-12-18T19:51:50.114Z,-2.86
2022-12-18T19:54:18.389Z,-2.85
2022-12-18T19:56:46.790Z,-2.83
2022-12-18T19:59:14.931Z,-2.83
2022-12-18T20:01:43.085Z,-2.84
2022-12-18T20:04:10.929Z,-2.73
2022-12-18T20:06:48.178Z,-2.71
2022-12-18T20:09:15.775Z,-2.73
2022-12-18T20:11:44.321Z,-2.70
2022-12-18T20:14:13.184Z,-2.73
2022-12-18T20:16:41.559Z,-2.72
2022-12-18T20:19:11.265Z,-2.70
2022-12-18T20:21:38.834Z,-2.72
2022-12-18T20:24:09.166Z,-2.74
2022-12-18T20:26:36.841Z,-2.72
2022-12-18T20:29:04.349Z,-2.69
2022-12-18T20:31:31.867Z,-2.66
2022-12-18T20:34:01.752Z,-2.65
2022-12-18T20:36:31.821Z,-2.58
2022-12-18T20:39:03.860Z,-2.64
2022-12-18T20:41:38.044Z,-2.62
2022-12-18T20:44:07.489Z,-2.58
2022-12-18T20:46:41.291Z,-2.57
2022-12-18T20:49:08.919Z,-2.55
2022-12-18T20:51:37.071Z,-2.47
2022-12-18T20:54:08.002Z,-2.55
2022-12-18T20:56:40.444Z,-2.48
2022-12-18T20:59:08.059Z,-2.48
2022-12-18T21:01:35.678Z,-2.45
2022-12-18T21:04:04.964Z,-2.44
2022-12-18T21:06:32.526Z,-2.48
2022-12-18T21:09:00.095Z,-2.48
2022-12-18T21:11:47.787Z,-2.51
2022-12-18T21:14:19.126Z,-2.44
2022-12-18T21:16:47.886Z,-2.45
2022-12-18T21:19:17.705Z,-2.43
2022-12-18T21:21:45.934Z,-2.39
2022-12-18T21:24:13.553Z,-2.39
2022-12-18T21:26:45.872Z,-2.36
2022-12-18T21:29:18.098Z,-2.38
2022-12-18T21:31:46.647Z,-2.30
2022-12-18T21:34:17.485Z,-2.29
2022-12-18T21:36:45.514Z,-2.28
2022-12-18T21:39:15.071Z,-2.24
2022-12-18T21:42:00.533Z,-2.28
2022-12-18T21:44:29.858Z,-2.30
2022-12-18T21:47:09.380Z,-2.28
2022-12-18T21:49:45.198Z,-2.27
2022-12-18T21:52:12.743Z,-2.23
2022-12-18T21:54:40.323Z,-2.33
2022-12-18T21:57:08.989Z,-2.34
2022-12-18T21:59:39.296Z,-2.33
2022-12-18T22:02:11.885Z,-2.46
2022-12-18T22:04:39.565Z,-2.47
2022-12-18T22:07:08.183Z,-2.40
2022-12-18T22:09:36.038Z,-2.42
2022-12-18T22:12:03.802Z,-2.38
2022-12-18T22:14:31.332Z,-2.40
2022-12-18T22:17:01.050Z,-2.46
2022-12-18T22:19:28.849Z,-2.46
2022-12-18T22:21:56.475Z,-2.43
2022-12-18T22:24:25.711Z,-2.48
2022-12-18T22:26:56.210Z,-2.45
2022-12-18T22:29:47.411Z,-2.52
2022-12-18T22:32:20.417Z,-2.46
2022-12-18T22:35:03.108Z,-2.44
2022-12-18T22:37:34.264Z,-2.45
2022-12-18T22:40:03.057Z,-2.40
2022-12-18T22:42:31.435Z,-2.43
2022-12-18T22:45:00.222Z,-2.42
2022-12-18T22:47:30.498Z,-2.40
2022-12-18T22:49:58.639Z,-2.46
2022-12-18T22:52:26.472Z,-2.38
2022-12-18T22:54:54.488Z,-2.38
2022-12-18T22:57:22.155Z,-2.35
2022-12-18T22:59:50.012Z,-2.37
2022-12-18T23:02:17.901Z,-2.39
2022-12-18T23:04:47.385Z,-2.40
2022-12-18T23:07:15.078Z,-2.39
2022-12-18T23:09:42.645Z,-2.36
2022-12-18T23:12:16.169Z,-2.37
2022-12-18T23:14:47.764Z,-2.40
2022-12-18T23:17:15.326Z,-2.35
2022-12-18T23:19:48.804Z,-2.37
2022-12-18T23:22:18.565Z,-2.33
2022-12-18T23:24:46.961Z,-2.32
2022-12-18T23:27:14.604Z,-2.34
2022-12-18T23:29:42.173Z,-2.28
2022-12-18T23:32:11.060Z,-2.26
2022-12-18T23:34:38.558Z,-2.26
2022-12-18T23:37:06.285Z,-2.23
2022-12-18T23:39:35.258Z,-2.23
2022-12-18T23:42:02.822Z,-2.23
2022-12-18T23:44:30.299Z,-2.18
2022-12-18T23:46:57.819Z,-2.21
2022-12-18T23:49:25.355Z,-2.25
2022-12-18T23:51:55.190Z,-2.26
2022-12-18T23:54:32.889Z,-2.20
2022-12-18T23:57:02.576Z,-2.22
2022-12-18T23:59:30.109Z,-2.22
